Time;durP1;ratioP1;P1;durP2;ratioP2;P2;SDS_P1;SDS_P2;PMS_P1;PMS_P2;Temp;Humidity;BMP_temperature;BMP_pressure;BME280_temperature;BME280_humidity;BME280_pressure;Samples;Min_cycle;Max_cycle;Signal;HPM_P1;HPM_P2
2020/12/02 00:00:49;;;;;;;1.60;1.30;;;6.20;98.20;;;;;;5065008;28;20493;-78
2020/12/02 00:03:22;;;;;;;1.60;1.20;;;6.20;98.20;;;;;;5069489;28;20456;-77
2020/12/02 00:05:51;;;;;;;1.60;1.30;;;6.20;98.20;;;;;;5069557;28;20453;-77
2020/12/02 00:08:22;;;;;;;1.60;1.30;;;6.20;98.20;;;;;;5063968;28;20458;-77
2020/12/02 00:10:49;;;;;;;1.60;1.40;;;6.10;98.20;;;;;;5068353;28;20450;-78
2020/12/02 00:13:20;;;;;;;1.60;1.30;;;6.20;98.20;;;;;;5069239;28;20485;-77
2020/12/02 00:15:46;;;;;;;1.67;1.40;;;6.20;98.20;;;;;;5069332;28;20462;-77
2020/12/02 00:18:13;;;;;;;1.60;1.30;;;6.20;98.20;;;;;;5064728;28;20478;-77
2020/12/02 00:20:40;;;;;;;2.07;1.87;;;6.20;98.20;;;;;;5068716;28;20948;-78
2020/12/02 00:23:06;;;;;;;1.70;1.47;;;6.20;98.20;;;;;;5066659;28;20494;-77
2020/12/02 00:25:33;;;;;;;1.60;1.30;;;6.20;98.20;;;;;;5063335;28;20462;-77
2020/12/02 00:28:01;;;;;;;1.60;1.30;;;6.20;98.20;;;;;;5066351;28;20862;-78
2020/12/02 00:30:28;;;;;;;1.60;1.30;;;6.20;98.20;;;;;;5067872;28;20694;-78
2020/12/02 00:33:07;;;;;;;1.60;1.30;;;6.20;98.20;;;;;;5066586;28;20520;-77
2020/12/02 00:35:35;;;;;;;1.60;1.30;;;6.20;98.20;;;;;;5067667;28;20460;-78
2020/12/02 00:38:01;;;;;;;1.60;1.30;;;6.20;98.20;;;;;;5068211;28;21001;-77
2020/12/02 00:40:28;;;;;;;1.60;1.40;;;6.20;98.20;;;;;;5068659;28;20519;-78
2020/12/02 00:42:54;;;;;;;1.60;1.30;;;6.20;98.20;;;;;;5066153;28;20469;-77
2020/12/02 00:45:21;;;;;;;1.60;1.30;;;6.20;98.20;;;;;;5072035;28;20503;-78
2020/12/02 00:47:50;;;;;;;1.60;1.30;;;6.20;98.20;;;;;;5072367;28;20454;-77
2020/12/02 00:50:17;;;;;;;1.63;1.40;;;6.20;98.20;;;;;;5066921;28;20980;-78
2020/12/02 00:52:59;;;;;;;1.60;1.30;;;6.20;98.20;;;;;;5070619;28;20653;-78
2020/12/02 00:55:25;;;;;;;1.60;1.30;;;6.20;98.20;;;;;;5063993;28;20458;-77
2020/12/02 00:57:53;;;;;;;1.60;1.30;;;6.20;98.20;;;;;;5069739;28;20453;-77
2020/12/02 01:00:21;;;;;;;1.60;1.30;;;6.20;98.20;;;;;;5068132;28;20832;-78
2020/12/02 01:02:57;;;;;;;1.60;1.30;;;6.20;98.20;;;;;;5070205;28;20453;-78
2020/12/02 01:05:24;;;;;;;1.67;1.40;;;6.20;98.20;;;;;;5073017;28;20489;-77
2020/12/02 01:07:51;;;;;;;1.60;1.30;;;6.20;98.20;;;;;;5069698;28;20470;-78
2020/12/02 01:10:17;;;;;;;1.60;1.30;;;6.20;98.20;;;;;;5067019;28;20498;-77
2020/12/02 01:12:46;;;;;;;1.60;1.30;;;6.20;98.20;;;;;;5071520;28;20900;-77
2020/12/02 01:15:18;;;;;;;1.60;1.30;;;6.20;98.20;;;;;;5070991;28;20481;-77
2020/12/02 01:18:12;;;;;;;1.60;1.30;;;6.20;98.20;;;;;;5065028;28;20957;-77
2020/12/02 01:20:39;;;;;;;1.60;1.30;;;6.20;98.20;;;;;;5068249;28;20750;-77
2020/12/02 01:23:06;;;;;;;1.60;1.40;;;6.20;98.20;;;;;;5072098;28;20465;-77
2020/12/02 01:25:33;;;;;;;1.60;1.30;;;6.20;98.20;;;;;;5068747;28;20669;-77
2020/12/02 01:28:05;;;;;;;1.60;1.30;;;6.20;98.20;;;;;;5069715;28;20457;-77
2020/12/02 01:30:32;;;;;;;1.60;1.30;;;6.20;98.20;;;;;;5069537;28;20521;-77
2020/12/02 01:33:00;;;;;;;1.60;1.30;;;6.10;98.20;;;;;;5067191;28;20908;-78
2020/12/02 01:35:29;;;;;;;1.60;1.30;;;6.10;98.20;;;;;;5068248;28;20466;-78
2020/12/02 01:37:59;;;;;;;1.60;1.30;;;6.10;98.20;;;;;;5071130;28;20485;-77
2020/12/02 01:40:27;;;;;;;1.60;1.30;;;6.10;98.20;;;;;;5071126;28;20992;-77
2020/12/02 01:42:59;;;;;;;1.60;1.30;;;6.10;98.20;;;;;;5068714;28;20952;-77
2020/12/02 01:45:29;;;;;;;1.70;1.40;;;6.10;98.20;;;;;;5064903;28;20458;-77
2020/12/02 01:48:20;;;;;;;1.60;1.30;;;6.10;98.20;;;;;;5068712;28;20782;-77
2020/12/02 01:50:49;;;;;;;1.67;1.40;;;6.10;98.20;;;;;;5069950;28;20934;-77
2020/12/02 01:53:25;;;;;;;1.63;1.40;;;6.10;98.20;;;;;;5067168;28;20664;-77
2020/12/02 01:55:55;;;;;;;1.63;1.33;;;6.10;98.20;;;;;;5067073;28;20516;-78
2020/12/02 01:58:39;;;;;;;1.60;1.30;;;6.10;98.20;;;;;;5069911;28;20466;-77
2020/12/02 02:01:13;;;;;;;1.60;1.30;;;6.20;98.20;;;;;;5068492;28;20490;-77
2020/12/02 02:03:41;;;;;;;1.60;1.23;;;6.20;98.20;;;;;;5071003;28;20717;-77
2020/12/02 02:06:13;;;;;;;2.53;2.33;;;6.20;98.20;;;;;;5070785;28;21010;-77
2020/12/02 02:08:42;;;;;;;1.60;1.30;;;6.20;98.20;;;;;;5066485;28;20523;-78
2020/12/02 02:11:11;;;;;;;1.60;1.30;;;6.20;98.20;;;;;;5068262;28;20511;-77
2020/12/02 02:14:02;;;;;;;1.60;1.40;;;6.20;98.20;;;;;;5070325;28;20879;-77
2020/12/02 02:16:31;;;;;;;1.60;1.30;;;6.20;98.20;;;;;;5067091;28;20461;-77
2020/12/02 02:18:59;;;;;;;1.60;1.27;;;6.20;98.20;;;;;;5065259;28;20516;-77
2020/12/02 02:21:31;;;;;;;1.60;1.40;;;6.20;98.20;;;;;;5068642;28;20488;-76
2020/12/02 02:23:57;;;;;;;1.60;1.30;;;6.20;98.20;;;;;;5066213;28;20553;-76
2020/12/02 02:26:32;;;;;;;1.60;1.20;;;6.20;98.20;;;;;;5067988;28;20815;-77
2020/12/02 02:29:04;;;;;;;1.60;1.30;;;6.20;98.20;;;;;;5065375;28;20461;-76
2020/12/02 02:31:37;;;;;;;1.63;1.40;;;6.20;98.20;;;;;;5065948;28;21030;-77
2020/12/02 02:34:03;;;;;;;1.60;1.30;;;6.20;98.20;;;;;;5064105;28;20505;-76
2020/12/02 02:36:30;;;;;;;1.60;1.30;;;6.20;98.20;;;;;;5062807;28;20786;-77
2020/12/02 02:38:57;;;;;;;1.60;1.30;;;6.20;98.20;;;;;;5070776;28;20523;-77
2020/12/02 02:41:27;;;;;;;1.60;1.30;;;6.20;98.20;;;;;;5068006;28;20873;-77
2020/12/02 02:43:55;;;;;;;2.90;2.70;;;6.10;98.20;;;;;;5064478;28;20500;-77
2020/12/02 02:46:22;;;;;;;1.60;1.30;;;6.10;98.20;;;;;;5061158;28;20574;-76
2020/12/02 02:48:49;;;;;;;1.60;1.40;;;6.10;98.20;;;;;;5059214;28;20501;-77
2020/12/02 02:51:16;;;;;;;1.60;1.30;;;6.10;98.20;;;;;;5062468;28;20568;-77
2020/12/02 02:53:42;;;;;;;1.67;1.40;;;6.20;98.20;;;;;;5066179;28;20584;-77
2020/12/02 02:56:11;;;;;;;1.60;1.30;;;6.20;98.20;;;;;;5063297;28;20756;-77
2020/12/02 02:58:38;;;;;;;1.63;1.40;;;6.20;98.20;;;;;;5061871;28;20461;-77
2020/12/02 03:01:05;;;;;;;1.60;1.40;;;6.20;98.20;;;;;;5064800;28;20498;-77
2020/12/02 03:03:32;;;;;;;1.70;1.47;;;6.20;98.20;;;;;;5064682;28;20513;-77
2020/12/02 03:06:00;;;;;;;1.60;1.30;;;6.10;98.20;;;;;;5068847;28;20466;-77
2020/12/02 03:08:27;;;;;;;1.60;1.30;;;6.10;98.20;;;;;;5064562;28;20485;-78
2020/12/02 03:10:55;;;;;;;1.60;1.20;;;6.10;98.20;;;;;;5067220;28;20586;-76
2020/12/02 03:13:30;;;;;;;1.60;1.40;;;6.10;98.20;;;;;;5067475;28;20867;-78
2020/12/02 03:15:58;;;;;;;1.60;1.30;;;6.10;98.20;;;;;;5065502;28;20462;-77
2020/12/02 03:18:26;;;;;;;1.60;1.40;;;6.10;98.20;;;;;;5066122;28;20510;-77
2020/12/02 03:20:57;;;;;;;1.60;1.30;;;6.10;98.20;;;;;;5062996;28;20868;-78
2020/12/02 03:23:24;;;;;;;1.60;1.20;;;6.10;98.20;;;;;;5067515;28;20885;-77
2020/12/02 03:25:50;;;;;;;1.60;1.30;;;6.10;98.20;;;;;;5067235;28;20490;-76
2020/12/02 03:28:18;;;;;;;1.60;1.30;;;6.10;98.20;;;;;;5063189;28;20527;-78
2020/12/02 03:30:45;;;;;;;1.60;1.30;;;6.10;98.20;;;;;;5067590;28;20966;-76
2020/12/02 03:33:15;;;;;;;1.60;1.30;;;6.10;98.20;;;;;;5069640;28;20453;-77
2020/12/02 03:35:43;;;;;;;1.60;1.30;;;6.10;98.20;;;;;;5066021;28;20467;-78
2020/12/02 03:38:09;;;;;;;1.60;1.30;;;6.20;98.20;;;;;;5064308;28;20527;-77
2020/12/02 03:40:36;;;;;;;1.60;1.30;;;6.10;98.20;;;;;;5066968;28;20501;-77
2020/12/02 03:43:02;;;;;;;1.60;1.30;;;6.10;98.20;;;;;;5067903;28;20515;-77
2020/12/02 03:45:29;;;;;;;1.60;1.30;;;6.10;98.20;;;;;;5067152;28;20527;-76
2020/12/02 03:47:55;;;;;;;1.60;1.30;;;6.10;98.20;;;;;;5067111;28;20462;-77
2020/12/02 03:50:22;;;;;;;1.60;1.30;;;6.10;98.20;;;;;;5065667;28;21051;-77
2020/12/02 03:52:49;;;;;;;1.60;1.30;;;6.10;98.20;;;;;;5064756;28;20493;-77
2020/12/02 03:55:16;;;;;;;1.60;1.30;;;6.10;98.20;;;;;;5068226;28;20504;-77
2020/12/02 03:57:42;;;;;;;1.60;1.40;;;6.10;98.20;;;;;;5065258;28;20532;-78
2020/12/02 04:00:11;;;;;;;1.60;1.30;;;6.10;98.20;;;;;;5064663;28;20571;-77
2020/12/02 04:02:39;;;;;;;1.60;1.30;;;6.00;98.20;;;;;;5068327;28;21038;-77
2020/12/02 04:05:06;;;;;;;1.60;1.30;;;6.00;98.20;;;;;;5068891;28;21039;-77
2020/12/02 04:07:33;;;;;;;1.60;1.30;;;6.00;98.20;;;;;;5066491;28;20532;-77
2020/12/02 04:10:00;;;;;;;1.60;1.30;;;6.00;98.20;;;;;;5062618;28;20551;-77
2020/12/02 04:12:27;;;;;;;1.60;1.30;;;6.00;98.20;;;;;;5069249;28;20862;-77
2020/12/02 04:14:53;;;;;;;1.60;1.20;;;6.00;98.20;;;;;;5065539;28;20474;-79
2020/12/02 04:17:20;;;;;;;1.60;1.20;;;6.00;98.20;;;;;;5059879;28;20485;-77
2020/12/02 04:19:46;;;;;;;1.60;1.30;;;6.00;98.20;;;;;;5065381;28;20447;-77
2020/12/02 04:22:12;;;;;;;1.60;1.30;;;6.00;98.20;;;;;;5071682;28;20929;-76
2020/12/02 04:24:39;;;;;;;1.60;1.30;;;6.00;98.20;;;;;;5068194;28;20509;-77
2020/12/02 04:27:06;;;;;;;1.60;1.30;;;6.00;98.20;;;;;;5065528;28;20501;-76
2020/12/02 04:29:33;;;;;;;1.60;1.23;;;6.00;98.20;;;;;;5068218;28;20525;-77
2020/12/02 04:32:00;;;;;;;1.60;1.30;;;6.00;98.20;;;;;;5072431;28;20493;-77
2020/12/02 04:34:26;;;;;;;1.60;1.30;;;6.00;98.20;;;;;;5071369;28;20493;-77
2020/12/02 04:36:53;;;;;;;1.60;1.20;;;6.00;98.20;;;;;;5066579;28;20454;-77
2020/12/02 04:39:20;;;;;;;1.60;1.30;;;6.00;98.20;;;;;;5069087;28;20512;-77
2020/12/02 04:41:46;;;;;;;1.60;1.27;;;6.00;98.20;;;;;;5072209;28;20458;-76
2020/12/02 04:44:14;;;;;;;1.60;1.30;;;6.00;98.20;;;;;;5070759;28;20548;-77
2020/12/02 04:46:40;;;;;;;1.60;1.40;;;6.00;98.20;;;;;;5067257;28;20489;-77
2020/12/02 04:49:15;;;;;;;1.60;1.30;;;6.00;98.20;;;;;;5062890;28;20531;-77
2020/12/02 04:51:42;;;;;;;1.60;1.30;;;6.00;98.20;;;;;;5065022;28;20550;-76
2020/12/02 04:54:10;;;;;;;1.60;1.30;;;6.00;98.20;;;;;;5068243;28;20634;-77
2020/12/02 04:56:40;;;;;;;1.60;1.30;;;6.00;98.20;;;;;;5066250;28;20686;-76
2020/12/02 04:59:07;;;;;;;1.60;1.30;;;6.00;98.20;;;;;;5071389;28;20828;-77
2020/12/02 05:01:45;;;;;;;1.60;1.30;;;6.00;98.20;;;;;;5066788;28;20458;-77
2020/12/02 05:04:16;;;;;;;1.60;1.20;;;6.00;98.20;;;;;;5063795;28;20554;-77
2020/12/02 05:06:45;;;;;;;1.60;1.30;;;6.00;98.20;;;;;;5070485;28;20866;-78
2020/12/02 05:09:17;;;;;;;1.60;1.30;;;5.90;98.20;;;;;;5071471;28;20485;-78
2020/12/02 05:11:57;;;;;;;1.60;1.30;;;5.90;98.20;;;;;;5061132;28;20819;-79
2020/12/02 05:14:30;;;;;;;1.60;1.20;;;5.90;98.20;;;;;;5065490;28;20477;-77
2020/12/02 05:17:17;;;;;;;1.60;1.43;;;5.90;98.20;;;;;;5069923;28;20449;-77
2020/12/02 05:19:44;;;;;;;1.60;1.30;;;5.90;98.20;;;;;;5067252;28;20446;-77
2020/12/02 05:22:13;;;;;;;1.67;1.47;;;5.90;98.20;;;;;;5065924;28;20533;-78
2020/12/02 05:24:47;;;;;;;1.60;1.40;;;5.90;98.20;;;;;;5068041;28;20497;-76
2020/12/02 05:27:17;;;;;;;1.67;1.40;;;5.90;98.20;;;;;;5072524;28;20506;-77
2020/12/02 05:29:53;;;;;;;1.60;1.30;;;5.90;98.20;;;;;;5065588;28;20989;-77
2020/12/02 05:32:23;;;;;;;1.60;1.40;;;5.90;98.20;;;;;;5060576;28;20450;-77
2020/12/02 05:34:50;;;;;;;1.60;1.30;;;5.90;98.20;;;;;;5071076;28;20619;-77
2020/12/02 05:37:25;;;;;;;1.60;1.30;;;5.90;98.20;;;;;;5066515;28;20541;-76
2020/12/02 05:39:56;;;;;;;1.60;1.30;;;5.90;98.20;;;;;;5067111;28;20445;-76
2020/12/02 05:42:32;;;;;;;1.60;1.30;;;5.90;98.20;;;;;;5064511;28;20491;-77
2020/12/02 05:45:07;;;;;;;1.60;1.40;;;5.90;98.20;;;;;;5068423;28;21041;-77
2020/12/02 05:47:35;;;;;;;1.60;1.40;;;5.90;98.20;;;;;;5067378;28;20464;-76
2020/12/02 05:50:07;;;;;;;1.60;1.33;;;5.90;98.20;;;;;;5066320;28;20855;-77
2020/12/02 05:52:36;;;;;;;1.60;1.30;;;5.90;98.20;;;;;;5063292;28;20732;-76
2020/12/02 05:55:06;;;;;;;1.60;1.23;;;5.90;98.20;;;;;;5067141;28;20977;-76
2020/12/02 05:57:39;;;;;;;1.60;1.30;;;5.90;98.20;;;;;;5075043;28;20533;-76
2020/12/02 06:00:08;;;;;;;1.60;1.40;;;5.90;98.20;;;;;;5085294;28;20458;-76
2020/12/02 06:02:37;;;;;;;1.67;1.40;;;5.80;98.20;;;;;;5080906;28;20466;-75
2020/12/02 06:05:11;;;;;;;1.60;1.30;;;5.80;98.20;;;;;;5076180;28;20486;-77
2020/12/02 06:07:47;;;;;;;1.60;1.30;;;5.80;98.20;;;;;;5077893;28;20465;-78
2020/12/02 06:10:15;;;;;;;1.60;1.40;;;5.80;98.20;;;;;;5068928;28;20829;-78
2020/12/02 06:12:52;;;;;;;1.60;1.20;;;5.80;98.20;;;;;;5073065;28;20482;-77
2020/12/02 06:15:23;;;;;;;1.60;1.30;;;5.70;98.20;;;;;;5078965;28;20493;-78
2020/12/02 06:18:11;;;;;;;1.60;1.30;;;5.70;98.20;;;;;;5067504;28;20482;-76
2020/12/02 06:20:44;;;;;;;1.60;1.30;;;5.70;98.20;;;;;;5065666;28;20951;-76
2020/12/02 06:23:11;;;;;;;1.60;1.40;;;5.70;98.20;;;;;;5060814;28;20660;-76
2020/12/02 06:25:56;;;;;;;1.60;1.40;;;5.70;98.20;;;;;;5059670;28;21246;-77
2020/12/02 06:28:49;;;;;;;1.60;1.30;;;5.70;98.20;;;;;;5062645;28;20554;-77
2020/12/02 06:31:28;;;;;;;1.60;1.40;;;5.70;98.20;;;;;;5065556;28;20907;-76
2020/12/02 06:33:57;;;;;;;1.60;1.37;;;5.70;98.20;;;;;;5067179;28;20481;-77
2020/12/02 06:36:27;;;;;;;1.63;1.33;;;5.70;98.20;;;;;;5047626;28;20463;-77
2020/12/02 06:38:55;;;;;;;1.60;1.40;;;5.70;98.20;;;;;;5051836;28;20459;-76
2020/12/02 06:41:31;;;;;;;1.60;1.30;;;5.70;98.20;;;;;;5067744;28;20461;-79
2020/12/02 06:44:07;;;;;;;1.60;1.40;;;5.70;98.20;;;;;;5070566;28;20561;-77
2020/12/02 06:47:06;;;;;;;1.60;1.30;;;5.70;98.20;;;;;;5050891;28;20463;-76
2020/12/02 06:49:36;;;;;;;1.60;1.30;;;5.70;98.20;;;;;;5050502;28;20482;-77
2020/12/02 06:52:06;;;;;;;1.67;1.40;;;5.70;98.20;;;;;;5057857;28;20563;-78
2020/12/02 06:54:36;;;;;;;1.70;1.43;;;5.80;98.20;;;;;;5055535;28;20479;-78
2020/12/02 06:57:07;;;;;;;1.60;1.20;;;5.70;98.20;;;;;;5057512;28;20465;-79
2020/12/02 06:59:47;;;;;;;1.60;1.30;;;5.70;98.20;;;;;;5055208;28;20981;-78
2020/12/02 07:02:36;;;;;;;1.60;1.33;;;5.70;98.20;;;;;;5059055;28;20944;-78
2020/12/02 07:05:08;;;;;;;1.60;1.30;;;5.70;98.20;;;;;;5059052;28;20489;-78
2020/12/02 07:07:34;;;;;;;1.70;1.40;;;5.70;98.20;;;;;;5055565;28;20902;-77
2020/12/02 07:10:01;;;;;;;1.60;1.30;;;5.70;98.20;;;;;;5059894;28;20489;-77
2020/12/02 07:12:30;;;;;;;1.60;1.30;;;5.70;98.20;;;;;;5060144;28;20960;-78
2020/12/02 07:15:00;;;;;;;1.60;1.30;;;5.70;98.20;;;;;;5059927;28;20481;-78
2020/12/02 07:17:27;;;;;;;1.60;1.30;;;5.60;98.20;;;;;;5052793;28;20906;-77
2020/12/02 07:19:54;;;;;;;1.60;1.20;;;5.60;98.20;;;;;;5050684;28;20540;-78
2020/12/02 07:22:26;;;;;;;1.63;1.40;;;5.60;98.20;;;;;;5059806;28;20490;-77
2020/12/02 07:24:59;;;;;;;1.63;1.43;;;5.60;98.20;;;;;;5054104;28;21043;-78
2020/12/02 07:27:26;;;;;;;1.60;1.30;;;5.60;98.20;;;;;;5058587;28;21027;-77
2020/12/02 07:30:00;;;;;;;1.70;1.40;;;5.60;98.20;;;;;;5059753;28;20863;-78
2020/12/02 07:32:27;;;;;;;1.70;1.47;;;5.60;98.20;;;;;;5054563;28;20523;-78
2020/12/02 07:35:00;;;;;;;1.60;1.30;;;5.60;98.20;;;;;;5057630;28;20486;-77
2020/12/02 07:37:28;;;;;;;1.60;1.40;;;5.60;98.20;;;;;;5055819;28;20551;-78
2020/12/02 07:40:02;;;;;;;1.60;1.30;;;5.60;98.20;;;;;;5056041;28;20462;-77
2020/12/02 07:42:31;;;;;;;1.60;1.30;;;5.60;98.20;;;;;;5058894;28;20549;-77
2020/12/02 07:45:03;;;;;;;1.60;1.30;;;5.60;98.20;;;;;;5057857;28;20947;-77
2020/12/02 07:47:32;;;;;;;1.60;1.43;;;5.60;98.20;;;;;;5058442;28;20462;-77
2020/12/02 07:50:04;;;;;;;1.63;1.40;;;5.60;98.20;;;;;;5055590;28;20490;-76
2020/12/02 07:52:37;;;;;;;1.60;1.40;;;5.60;98.20;;;;;;5062188;28;21257;-76
2020/12/02 07:55:05;;;;;;;1.60;1.30;;;5.60;98.20;;;;;;5059875;28;20521;-76
2020/12/02 07:57:34;;;;;;;1.60;1.20;;;5.60;98.20;;;;;;5063717;28;20550;-75
2020/12/02 08:00:19;;;;;;;1.60;1.30;;;5.60;98.20;;;;;;5058413;28;20473;-74
2020/12/02 08:02:47;;;;;;;1.60;1.30;;;5.60;98.20;;;;;;5062905;28;20510;-76
2020/12/02 08:05:33;;;;;;;1.60;1.40;;;5.50;98.20;;;;;;5065848;28;20565;-76
2020/12/02 08:08:00;;;;;;;1.60;1.30;;;5.60;98.20;;;;;;5061764;28;20457;-77
2020/12/02 08:10:30;;;;;;;1.60;1.30;;;5.60;98.20;;;;;;5062410;28;20485;-76
2020/12/02 08:12:57;;;;;;;1.70;1.40;;;5.60;98.20;;;;;;5063506;28;20498;-76
2020/12/02 08:15:26;;;;;;;1.60;1.30;;;5.60;98.20;;;;;;5055061;28;20489;-77
2020/12/02 08:18:02;;;;;;;1.60;1.30;;;5.60;98.20;;;;;;5059371;28;20542;-77
2020/12/02 08:20:33;;;;;;;1.60;1.30;;;5.50;98.20;;;;;;5052684;28;20470;-76
2020/12/02 08:23:07;;;;;;;1.60;1.33;;;5.50;98.20;;;;;;5058511;28;20459;-76
2020/12/02 08:25:38;;;;;;;1.67;1.40;;;5.50;98.20;;;;;;5051364;28;20469;-76
2020/12/02 08:28:09;;;;;;;2.63;2.33;;;5.50;98.20;;;;;;5060241;28;20494;-76
2020/12/02 08:30:36;;;;;;;1.60;1.30;;;5.50;98.20;;;;;;5060200;28;20486;-76
2020/12/02 08:33:09;;;;;;;1.60;1.30;;;5.50;98.20;;;;;;5059577;28;20466;-76
2020/12/02 08:35:40;;;;;;;1.63;1.47;;;5.50;98.20;;;;;;5060508;28;20458;-77
2020/12/02 08:38:13;;;;;;;1.60;1.30;;;5.50;98.20;;;;;;5061748;28;20938;-76
2020/12/02 08:40:44;;;;;;;1.60;1.30;;;5.50;98.20;;;;;;5058164;28;20453;-76
2020/12/02 08:43:33;;;;;;;1.60;1.30;;;5.50;98.20;;;;;;5059531;28;20473;-76
2020/12/02 08:46:19;;;;;;;1.60;1.30;;;5.50;98.20;;;;;;5055761;28;20461;-77
2020/12/02 08:48:48;;;;;;;1.63;1.30;;;5.40;98.20;;;;;;5058518;28;20461;-76
2020/12/02 08:51:18;;;;;;;1.60;1.30;;;5.40;98.20;;;;;;5051556;28;20559;-77
2020/12/02 08:53:45;;;;;;;1.60;1.30;;;5.40;98.20;;;;;;5053043;28;20492;-77
2020/12/02 08:56:28;;;;;;;1.60;1.40;;;5.40;98.20;;;;;;5052927;28;20455;-76
2020/12/02 08:58:55;;;;;;;1.60;1.40;;;5.40;98.20;;;;;;5054441;28;20501;-77
2020/12/02 09:01:22;;;;;;;1.60;1.30;;;5.40;98.20;;;;;;5056352;28;20511;-77
2020/12/02 09:03:48;;;;;;;1.60;1.30;;;5.40;98.20;;;;;;5058533;28;20494;-77
2020/12/02 09:06:17;;;;;;;1.60;1.40;;;5.40;98.20;;;;;;5063332;28;20992;-76
2020/12/02 09:08:44;;;;;;;1.60;1.40;;;5.40;98.20;;;;;;5061298;28;20473;-77
2020/12/02 09:11:11;;;;;;;1.60;1.30;;;5.40;98.20;;;;;;5060515;28;20489;-76
2020/12/02 09:13:39;;;;;;;1.60;1.30;;;5.40;98.20;;;;;;5059220;28;21004;-77
2020/12/02 09:16:05;;;;;;;1.60;1.23;;;5.40;98.20;;;;;;5064147;28;20463;-76
2020/12/02 09:18:32;;;;;;;1.60;1.30;;;5.40;98.20;;;;;;5060262;28;21423;-77
2020/12/02 09:20:58;;;;;;;1.60;1.30;;;5.30;98.20;;;;;;5066611;28;20498;-76
2020/12/02 09:23:25;;;;;;;1.60;1.30;;;5.30;98.20;;;;;;5068948;28;20545;-77
2020/12/02 09:25:51;;;;;;;1.60;1.50;;;5.30;98.20;;;;;;5065818;28;20538;-77
2020/12/02 09:28:18;;;;;;;1.63;1.37;;;5.30;98.20;;;;;;5067306;28;20462;-77
2020/12/02 09:30:45;;;;;;;1.60;1.23;;;5.30;98.20;;;;;;5064158;28;20909;-76
2020/12/02 09:33:12;;;;;;;2.10;1.90;;;5.30;98.20;;;;;;5066150;28;20458;-77
2020/12/02 09:35:38;;;;;;;1.60;1.40;;;5.40;98.20;;;;;;5059689;28;20922;-77
2020/12/02 09:38:08;;;;;;;1.67;1.40;;;5.40;98.20;;;;;;5062113;28;20782;-77
2020/12/02 09:40:35;;;;;;;1.60;1.30;;;5.40;98.20;;;;;;5061630;28;20526;-76
2020/12/02 09:43:33;;;;;;;1.60;1.23;;;5.40;98.20;;;;;;5064836;28;20458;-77
2020/12/02 09:46:06;;;;;;;1.60;1.30;;;5.40;98.20;;;;;;5058395;28;20474;-76
2020/12/02 09:48:33;;;;;;;3.40;3.00;;;5.50;98.20;;;;;;5058459;28;20560;-76
2020/12/02 09:50:59;;;;;;;1.60;1.30;;;5.60;98.20;;;;;;5062185;28;20521;-76
2020/12/02 09:53:30;;;;;;;1.60;1.40;;;5.60;98.20;;;;;;5059150;28;20485;-77
2020/12/02 09:55:57;;;;;;;1.60;1.30;;;5.60;98.20;;;;;;5054140;28;20529;-76
2020/12/02 09:58:24;;;;;;;1.70;1.60;;;5.50;98.20;;;;;;5055418;28;20519;-76
2020/12/02 10:00:59;;;;;;;2.90;2.70;;;5.50;98.20;;;;;;5062495;28;20457;-77
2020/12/02 10:04:07;;;;;;;1.60;1.50;;;5.50;98.20;;;;;;5059608;28;20549;-76
2020/12/02 10:06:51;;;;;;;1.70;1.50;;;5.50;98.20;;;;;;5062327;28;20562;-76
2020/12/02 10:09:52;;;;;;;1.60;1.30;;;5.50;98.20;;;;;;5056652;28;20547;-76
2020/12/02 10:12:26;;;;;;;1.60;1.20;;;5.50;98.20;;;;;;5058453;28;20456;-76
2020/12/02 10:15:28;;;;;;;1.60;1.40;;;5.60;98.20;;;;;;5060185;28;20477;-77
2020/12/02 10:18:28;;;;;;;1.60;1.30;;;5.60;98.20;;;;;;4978566;28;20469;-77
2020/12/02 10:21:04;;;;;;;1.60;1.30;;;5.60;98.20;;;;;;5057935;28;20956;-77
2020/12/02 10:23:47;;;;;;;1.60;1.30;;;5.60;98.20;;;;;;5059157;28;20547;-76
2020/12/02 10:26:43;;;;;;;1.60;1.30;;;5.60;98.20;;;;;;5052616;28;20913;-77
2020/12/02 10:29:13;;;;;;;1.70;1.50;;;5.70;98.20;;;;;;5056455;28;20462;-77
2020/12/02 10:31:50;;;;;;;1.60;1.20;;;5.60;98.20;;;;;;5055126;28;20969;-77
2020/12/02 10:34:20;;;;;;;1.60;1.40;;;5.60;98.20;;;;;;5058610;28;20498;-77
2020/12/02 10:36:51;;;;;;;1.60;1.40;;;5.50;98.20;;;;;;5059518;28;20502;-77
2020/12/02 10:39:21;;;;;;;1.60;1.30;;;5.50;98.20;;;;;;5063274;28;20457;-77
2020/12/02 10:42:09;;;;;;;1.60;1.40;;;5.50;98.20;;;;;;5062571;28;20462;-77
2020/12/02 10:44:57;;;;;;;1.60;1.30;;;5.50;98.20;;;;;;5060721;28;20528;-77
2020/12/02 10:48:01;;;;;;;1.60;1.30;;;5.60;98.20;;;;;;5056939;28;20489;-77
2020/12/02 10:50:31;;;;;;;1.60;1.40;;;5.70;98.20;;;;;;5051336;28;21003;-77
2020/12/02 10:53:02;;;;;;;1.60;1.30;;;5.60;98.20;;;;;;5059199;28;20466;-77
2020/12/02 10:55:31;;;;;;;1.63;1.40;;;5.60;98.20;;;;;;5059882;28;20819;-77
2020/12/02 10:58:03;;;;;;;1.60;1.40;;;5.60;98.20;;;;;;5059934;28;20512;-77
2020/12/02 11:00:31;;;;;;;1.60;1.30;;;5.60;98.20;;;;;;5053787;28;20466;-77
2020/12/02 11:03:28;;;;;;;1.60;1.30;;;5.60;98.20;;;;;;5053065;28;20547;-77
2020/12/02 11:06:13;;;;;;;1.60;1.30;;;5.70;98.20;;;;;;5056324;28;20462;-78
2020/12/02 11:08:57;;;;;;;1.60;1.30;;;5.70;98.20;;;;;;5059704;28;20636;-77
2020/12/02 11:11:36;;;;;;;1.60;1.30;;;5.70;98.20;;;;;;5060564;28;20587;-77
2020/12/02 11:14:13;;;;;;;1.60;1.30;;;5.60;98.20;;;;;;5055083;28;20634;-77
2020/12/02 11:16:48;;;;;;;1.60;1.30;;;5.60;98.20;;;;;;5055894;28;20511;-77
2020/12/02 11:19:42;;;;;;;1.60;1.30;;;5.60;98.20;;;;;;5050191;28;20560;-77
2020/12/02 11:22:31;;;;;;;1.60;1.20;;;5.60;98.20;;;;;;5053007;28;20462;-77
2020/12/02 11:25:21;;;;;;;1.63;1.30;;;5.60;98.20;;;;;;5053519;28;20786;-77
2020/12/02 11:27:48;;;;;;;1.57;1.30;;;5.70;98.20;;;;;;5058280;28;20498;-77
2020/12/02 11:30:23;;;;;;;1.60;1.30;;;5.70;98.20;;;;;;5058195;28;20847;-77
2020/12/02 11:33:32;;;;;;;1.60;1.30;;;5.70;98.20;;;;;;5053128;28;20639;-77
2020/12/02 11:36:27;;;;;;;1.60;1.30;;;5.70;98.20;;;;;;5062177;28;20489;-77
2020/12/02 11:39:05;;;;;;;1.60;1.30;;;5.70;98.20;;;;;;5051901;28;20826;-77
2020/12/02 11:41:40;;;;;;;1.60;1.30;;;5.70;98.20;;;;;;5058376;28;20462;-77
2020/12/02 11:44:15;;;;;;;1.60;1.40;;;5.70;98.20;;;;;;5062417;28;20501;-77
2020/12/02 11:46:49;;;;;;;1.60;1.20;;;5.70;98.20;;;;;;5053636;28;20466;-77
2020/12/02 11:49:26;;;;;;;1.60;1.30;;;5.70;98.20;;;;;;5059318;28;20504;-77
2020/12/02 11:52:02;;;;;;;1.60;1.30;;;5.70;98.20;;;;;;5063078;28;20539;-78
2020/12/02 11:54:29;;;;;;;1.60;1.30;;;5.70;98.20;;;;;;5054463;28;20497;-76
2020/12/02 11:56:57;;;;;;;1.60;1.40;;;5.70;98.20;;;;;;5060116;28;20462;-76
2020/12/02 11:59:26;;;;;;;1.60;1.30;;;5.60;98.20;;;;;;5057515;28;20458;-76
2020/12/02 12:02:13;;;;;;;1.60;1.30;;;5.60;98.20;;;;;;5060691;28;20548;-77
2020/12/02 12:04:52;;;;;;;1.60;1.20;;;5.60;98.20;;;;;;5056580;28;20567;-76
2020/12/02 12:07:30;;;;;;;1.60;1.30;;;5.60;98.20;;;;;;5059522;28;20458;-77
2020/12/02 12:10:05;;;;;;;1.60;1.30;;;5.60;98.20;;;;;;5058714;28;20465;-76
2020/12/02 12:12:39;;;;;;;1.63;1.40;;;5.60;98.20;;;;;;5055807;28;20938;-77
2020/12/02 12:15:27;;;;;;;1.60;1.20;;;5.60;98.20;;;;;;5058914;28;20508;-76
2020/12/02 12:17:56;;;;;;;1.60;1.27;;;5.60;98.20;;;;;;5049242;28;20461;-76
2020/12/02 12:20:25;;;;;;;1.60;1.40;;;5.60;98.20;;;;;;5061670;28;20877;-76
2020/12/02 12:23:01;;;;;;;1.60;1.23;;;5.60;98.20;;;;;;5060051;28;20520;-76
2020/12/02 12:25:32;;;;;;;1.60;1.23;;;5.70;98.20;;;;;;5058599;28;20841;-77
2020/12/02 12:28:02;;;;;;;1.60;1.37;;;5.70;98.20;;;;;;5062982;28;20486;-76
2020/12/02 12:30:29;;;;;;;1.67;1.43;;;5.70;98.20;;;;;;5055039;28;20852;-76
2020/12/02 12:33:02;;;;;;;1.63;1.40;;;5.80;98.20;;;;;;5054509;28;20454;-76
2020/12/02 12:35:34;;;;;;;1.60;1.30;;;5.80;98.20;;;;;;5062403;28;20486;-76
2020/12/02 12:38:16;;;;;;;1.60;1.30;;;5.80;98.20;;;;;;5067416;28;20485;-76
2020/12/02 12:40:50;;;;;;;1.60;1.30;;;5.80;98.20;;;;;;5060722;28;20462;-76
2020/12/02 12:43:22;;;;;;;1.60;1.30;;;5.80;98.20;;;;;;5068818;28;20911;-76
2020/12/02 12:45:57;;;;;;;1.60;1.20;;;5.90;98.20;;;;;;5069571;28;20493;-76
2020/12/02 12:48:24;;;;;;;1.60;1.30;;;5.90;98.20;;;;;;5058571;28;20501;-76
2020/12/02 12:50:52;;;;;;;1.60;1.30;;;5.90;98.20;;;;;;5067126;28;20500;-76
2020/12/02 12:53:22;;;;;;;1.60;1.30;;;5.90;98.20;;;;;;5062411;28;20813;-76
2020/12/02 12:55:52;;;;;;;1.60;1.30;;;5.90;98.20;;;;;;5058197;28;21170;-76
2020/12/02 12:58:20;;;;;;;1.60;1.20;;;5.90;98.20;;;;;;5063179;28;20870;-76
2020/12/02 13:00:49;;;;;;;1.60;1.40;;;5.90;98.20;;;;;;5068353;28;20572;-76
2020/12/02 13:03:17;;;;;;;1.60;1.30;;;5.80;98.20;;;;;;5069081;28;20556;-76
2020/12/02 13:05:57;;;;;;;1.60;1.27;;;5.80;98.20;;;;;;5066605;28;20557;-76
2020/12/02 13:08:32;;;;;;;1.63;1.47;;;5.80;98.20;;;;;;5062809;28;20486;-76
2020/12/02 13:11:05;;;;;;;1.60;1.20;;;5.80;98.20;;;;;;5068350;28;20528;-76
2020/12/02 13:13:46;;;;;;;1.60;1.27;;;5.80;98.20;;;;;;5067038;28;20492;-76
2020/12/02 13:16:19;;;;;;;1.60;1.30;;;5.80;98.20;;;;;;5065881;28;20502;-76
2020/12/02 13:19:11;;;;;;;1.60;1.40;;;5.80;98.20;;;;;;5054100;28;21000;-76
2020/12/02 13:21:43;;;;;;;1.60;1.30;;;5.70;98.20;;;;;;5063652;28;20918;-76
2020/12/02 13:24:32;;;;;;;1.60;1.30;;;5.70;98.20;;;;;;5065413;28;20730;-76